sensor_id;sensor_type;location;lat;lon;timestamp;pressure;altitude;pressure_sealevel;temperature;humidity
23303;BME280;11820;48.738;9.092;2023-02-21T00:01:15;96795.50;;;7.47;nan
23303;BME280;11820;48.738;9.092;2023-02-21T00:03:59;96795.53;;;7.31;nan
23303;BME280;11820;48.738;9.092;2023-02-21T00:06:43;96787.78;;;7.63;nan
23303;BME280;11820;48.738;9.092;2023-02-21T00:09:27;96784.25;;;7.80;nan
23303;BME280;11820;48.738;9.092;2023-02-21T00:12:11;96782.81;;;7.54;nan
23303;BME280;11820;48.738;9.092;2023-02-21T00:14:55;96783.78;;;7.29;nan
23303;BME280;11820;48.738;9.092;2023-02-21T00:17:39;96784.88;;;7.26;nan
23303;BME280;11820;48.738;9.092;2023-02-21T00:20:23;96787.16;;;7.37;nan
23303;BME280;11820;48.738;9.092;2023-02-21T00:23:06;96776.69;;;7.31;nan
23303;BME280;11820;48.738;9.092;2023-02-21T00:25:50;96781.06;;;7.30;nan
23303;BME280;11820;48.738;9.092;2023-02-21T00:28:34;96773.31;;;7.06;nan
23303;BME280;11820;48.738;9.092;2023-02-21T00:31:18;96779.13;;;7.32;nan
23303;BME280;11820;48.738;9.092;2023-02-21T00:34:02;96778.78;;;7.03;nan
23303;BME280;11820;48.738;9.092;2023-02-21T00:36:46;96775.56;;;7.09;nan
23303;BME280;11820;48.738;9.092;2023-02-21T00:39:30;96773.97;;;7.32;nan
23303;BME280;11820;48.738;9.092;2023-02-21T00:42:14;96771.88;;;7.28;nan
23303;BME280;11820;48.738;9.092;2023-02-21T00:44:58;96763.69;;;7.32;nan
23303;BME280;11820;48.738;9.092;2023-02-21T00:47:42;96768.81;;;7.24;nan
23303;BME280;11820;48.738;9.092;2023-02-21T00:50:26;96768.03;;;7.32;nan
23303;BME280;11820;48.738;9.092;2023-02-21T00:53:10;96769.94;;;7.30;nan
23303;BME280;11820;48.738;9.092;2023-02-21T00:55:54;96774.44;;;7.28;nan
23303;BME280;11820;48.738;9.092;2023-02-21T00:58:38;96762.72;;;7.41;nan
23303;BME280;11820;48.738;9.092;2023-02-21T01:01:22;96757.88;;;7.62;nan
23303;BME280;11820;48.738;9.092;2023-02-21T01:04:06;96750.59;;;7.82;nan
23303;BME280;11820;48.738;9.092;2023-02-21T01:06:50;96745.25;;;8.07;nan
23303;BME280;11820;48.738;9.092;2023-02-21T01:09:33;96745.50;;;8.28;nan
23303;BME280;11820;48.738;9.092;2023-02-21T01:12:18;96738.09;;;8.33;nan
23303;BME280;11820;48.738;9.092;2023-02-21T01:15:02;96737.91;;;8.34;nan
23303;BME280;11820;48.738;9.092;2023-02-21T01:17:46;96746.88;;;8.46;nan
23303;BME280;11820;48.738;9.092;2023-02-21T01:20:30;96744.47;;;8.45;nan
23303;BME280;11820;48.738;9.092;2023-02-21T01:23:14;96742.16;;;8.58;nan
23303;BME280;11820;48.738;9.092;2023-02-21T01:25:58;96744.69;;;8.66;nan
23303;BME280;11820;48.738;9.092;2023-02-21T01:28:42;96745.66;;;8.65;nan
23303;BME280;11820;48.738;9.092;2023-02-21T01:31:26;96739.47;;;8.74;nan
23303;BME280;11820;48.738;9.092;2023-02-21T01:34:10;96741.66;;;8.85;nan
23303;BME280;11820;48.738;9.092;2023-02-21T01:36:54;96735.25;;;8.81;nan
23303;BME280;11820;48.738;9.092;2023-02-21T01:39:38;96729.41;;;8.87;nan
23303;BME280;11820;48.738;9.092;2023-02-21T01:42:22;96737.16;;;8.79;nan
23303;BME280;11820;48.738;9.092;2023-02-21T01:48:16;96736.03;;;8.51;nan
23303;BME280;11820;48.738;9.092;2023-02-21T01:51:02;96723.31;;;8.80;nan
23303;BME280;11820;48.738;9.092;2023-02-21T01:53:47;96728.03;;;8.76;nan
23303;BME280;11820;48.738;9.092;2023-02-21T01:56:32;96729.69;;;8.92;nan
23303;BME280;11820;48.738;9.092;2023-02-21T01:59:17;96730.31;;;8.71;nan
23303;BME280;11820;48.738;9.092;2023-02-21T02:02:16;96722.44;;;8.65;nan
23303;BME280;11820;48.738;9.092;2023-02-21T02:05:02;96719.88;;;8.87;nan
23303;BME280;11820;48.738;9.092;2023-02-21T02:07:47;96705.09;;;8.81;nan
23303;BME280;11820;48.738;9.092;2023-02-21T02:10:32;96711.38;;;8.79;nan
23303;BME280;11820;48.738;9.092;2023-02-21T02:24:27;96707.56;;;8.75;nan
23303;BME280;11820;48.738;9.092;2023-02-21T02:29:45;96700.50;;;8.69;nan
23303;BME280;11820;48.738;9.092;2023-02-21T02:37:58;96693.19;;;8.27;nan
23303;BME280;11820;48.738;9.092;2023-02-21T02:45:44;96689.47;;;7.84;nan
23303;BME280;11820;48.738;9.092;2023-02-21T02:48:19;96690.91;;;7.86;nan
23303;BME280;11820;48.738;9.092;2023-02-21T02:50:47;96685.75;;;7.86;nan
23303;BME280;11820;48.738;9.092;2023-02-21T02:53:21;96685.00;;;7.70;nan
23303;BME280;11820;48.738;9.092;2023-02-21T02:55:48;96679.69;;;7.79;nan
23303;BME280;11820;48.738;9.092;2023-02-21T02:58:16;96681.81;;;7.60;nan
23303;BME280;11820;48.738;9.092;2023-02-21T03:00:44;96685.06;;;7.38;nan
23303;BME280;11820;48.738;9.092;2023-02-21T03:06:04;96693.59;;;7.30;nan
23303;BME280;11820;48.738;9.092;2023-02-21T03:08:50;96690.50;;;7.51;nan
23303;BME280;11820;48.738;9.092;2023-02-21T03:11:20;96687.16;;;7.26;nan
23303;BME280;11820;48.738;9.092;2023-02-21T03:13:55;96688.47;;;7.14;nan
23303;BME280;11820;48.738;9.092;2023-02-21T03:16:25;96690.38;;;7.44;nan
23303;BME280;11820;48.738;9.092;2023-02-21T03:18:57;96690.03;;;7.47;nan
23303;BME280;11820;48.738;9.092;2023-02-21T03:21:31;96691.53;;;7.88;nan
23303;BME280;11820;48.738;9.092;2023-02-21T03:24:01;96688.25;;;8.10;nan
23303;BME280;11820;48.738;9.092;2023-02-21T03:26:31;96680.16;;;8.21;nan
23303;BME280;11820;48.738;9.092;2023-02-21T03:28:58;96677.88;;;8.26;nan
23303;BME280;11820;48.738;9.092;2023-02-21T03:31:26;96681.75;;;8.22;nan
23303;BME280;11820;48.738;9.092;2023-02-21T03:33:52;96688.16;;;7.96;nan
23303;BME280;11820;48.738;9.092;2023-02-21T03:36:18;96683.25;;;7.62;nan
23303;BME280;11820;48.738;9.092;2023-02-21T03:38:44;96687.31;;;7.33;nan
23303;BME280;11820;48.738;9.092;2023-02-21T03:41:10;96689.75;;;7.18;nan
23303;BME280;11820;48.738;9.092;2023-02-21T03:43:36;96682.03;;;7.34;nan
23303;BME280;11820;48.738;9.092;2023-02-21T03:46:02;96677.44;;;7.68;nan
23303;BME280;11820;48.738;9.092;2023-02-21T03:48:27;96676.19;;;7.48;nan
23303;BME280;11820;48.738;9.092;2023-02-21T03:50:52;96683.91;;;7.56;nan
23303;BME280;11820;48.738;9.092;2023-02-21T03:53:18;96687.34;;;7.25;nan
23303;BME280;11820;48.738;9.092;2023-02-21T03:55:43;96689.59;;;7.12;nan
23303;BME280;11820;48.738;9.092;2023-02-21T03:58:08;96677.97;;;7.48;nan
23303;BME280;11820;48.738;9.092;2023-02-21T04:00:34;96680.31;;;7.73;nan
23303;BME280;11820;48.738;9.092;2023-02-21T04:02:59;96679.25;;;7.98;nan
23303;BME280;11820;48.738;9.092;2023-02-21T04:05:24;96676.03;;;8.04;nan
23303;BME280;11820;48.738;9.092;2023-02-21T04:07:50;96684.59;;;7.34;nan
23303;BME280;11820;48.738;9.092;2023-02-21T04:10:15;96684.94;;;6.83;nan
23303;BME280;11820;48.738;9.092;2023-02-21T04:12:40;96683.97;;;6.92;nan
23303;BME280;11820;48.738;9.092;2023-02-21T04:15:06;96683.50;;;7.05;nan
23303;BME280;11820;48.738;9.092;2023-02-21T04:17:31;96674.59;;;7.47;nan
23303;BME280;11820;48.738;9.092;2023-02-21T04:19:57;96670.44;;;7.22;nan
23303;BME280;11820;48.738;9.092;2023-02-21T04:22:22;96670.88;;;7.66;nan
23303;BME280;11820;48.738;9.092;2023-02-21T04:24:47;96667.69;;;7.94;nan
23303;BME280;11820;48.738;9.092;2023-02-21T04:27:13;96661.00;;;7.85;nan
23303;BME280;11820;48.738;9.092;2023-02-21T04:29:39;96669.91;;;7.59;nan
23303;BME280;11820;48.738;9.092;2023-02-21T04:32:04;96670.09;;;7.41;nan
23303;BME280;11820;48.738;9.092;2023-02-21T04:34:29;96669.00;;;7.28;nan
23303;BME280;11820;48.738;9.092;2023-02-21T04:36:55;96678.19;;;7.14;nan
23303;BME280;11820;48.738;9.092;2023-02-21T04:39:20;96684.13;;;6.99;nan
23303;BME280;11820;48.738;9.092;2023-02-21T04:41:45;96685.25;;;6.96;nan
23303;BME280;11820;48.738;9.092;2023-02-21T04:44:11;96673.13;;;7.61;nan
23303;BME280;11820;48.738;9.092;2023-02-21T04:46:37;96683.63;;;7.27;nan
23303;BME280;11820;48.738;9.092;2023-02-21T04:49:02;96683.19;;;7.16;nan
23303;BME280;11820;48.738;9.092;2023-02-21T04:51:28;96678.53;;;6.79;nan
23303;BME280;11820;48.738;9.092;2023-02-21T04:53:54;96687.44;;;6.36;nan
23303;BME280;11820;48.738;9.092;2023-02-21T04:56:22;96678.50;;;6.63;nan
23303;BME280;11820;48.738;9.092;2023-02-21T04:58:47;96674.22;;;6.23;nan
23303;BME280;11820;48.738;9.092;2023-02-21T05:01:15;96671.44;;;6.97;nan
23303;BME280;11820;48.738;9.092;2023-02-21T05:03:40;96670.31;;;6.84;nan
23303;BME280;11820;48.738;9.092;2023-02-21T05:06:06;96674.09;;;6.32;nan
23303;BME280;11820;48.738;9.092;2023-02-21T05:08:32;96674.28;;;6.46;nan
23303;BME280;11820;48.738;9.092;2023-02-21T05:10:57;96670.78;;;6.63;nan
23303;BME280;11820;48.738;9.092;2023-02-21T05:13:22;96658.88;;;7.34;nan
23303;BME280;11820;48.738;9.092;2023-02-21T05:15:48;96654.66;;;7.57;nan
23303;BME280;11820;48.738;9.092;2023-02-21T05:18:13;96653.50;;;7.60;nan
23303;BME280;11820;48.738;9.092;2023-02-21T05:20:46;96649.44;;;7.81;nan
23303;BME280;11820;48.738;9.092;2023-02-21T05:23:12;96649.38;;;7.89;nan
23303;BME280;11820;48.738;9.092;2023-02-21T05:25:41;96653.03;;;7.48;nan
23303;BME280;11820;48.738;9.092;2023-02-21T05:28:07;96654.41;;;6.96;nan
23303;BME280;11820;48.738;9.092;2023-02-21T05:30:32;96657.47;;;6.76;nan
23303;BME280;11820;48.738;9.092;2023-02-21T05:32:57;96655.88;;;6.91;nan
23303;BME280;11820;48.738;9.092;2023-02-21T05:35:23;96657.31;;;6.61;nan
23303;BME280;11820;48.738;9.092;2023-02-21T05:37:48;96649.78;;;6.92;nan
23303;BME280;11820;48.738;9.092;2023-02-21T05:40:15;96657.94;;;6.95;nan
23303;BME280;11820;48.738;9.092;2023-02-21T05:42:41;96667.16;;;6.25;nan
23303;BME280;11820;48.738;9.092;2023-02-21T05:45:08;96661.03;;;6.91;nan
23303;BME280;11820;48.738;9.092;2023-02-21T05:47:33;96651.28;;;7.49;nan
23303;BME280;11820;48.738;9.092;2023-02-21T05:49:59;96649.72;;;7.78;nan
23303;BME280;11820;48.738;9.092;2023-02-21T05:52:25;96652.44;;;7.93;nan
23303;BME280;11820;48.738;9.092;2023-02-21T05:54:51;96657.06;;;7.97;nan
23303;BME280;11820;48.738;9.092;2023-02-21T05:57:18;96659.63;;;7.97;nan
23303;BME280;11820;48.738;9.092;2023-02-21T05:59:43;96666.56;;;7.42;nan
23303;BME280;11820;48.738;9.092;2023-02-21T06:02:12;96670.94;;;6.86;nan
23303;BME280;11820;48.738;9.092;2023-02-21T06:04:37;96674.31;;;6.54;nan
23303;BME280;11820;48.738;9.092;2023-02-21T06:07:02;96672.25;;;6.66;nan
23303;BME280;11820;48.738;9.092;2023-02-21T06:09:28;96669.22;;;6.78;nan
23303;BME280;11820;48.738;9.092;2023-02-21T06:11:55;96672.09;;;6.83;nan
23303;BME280;11820;48.738;9.092;2023-02-21T06:14:21;96663.09;;;7.11;nan
23303;BME280;11820;48.738;9.092;2023-02-21T06:16:46;96661.28;;;7.44;nan
23303;BME280;11820;48.738;9.092;2023-02-21T06:19:13;96655.63;;;7.56;nan
23303;BME280;11820;48.738;9.092;2023-02-21T06:21:40;96654.94;;;7.62;nan
23303;BME280;11820;48.738;9.092;2023-02-21T06:24:06;96662.13;;;7.12;nan
23303;BME280;11820;48.738;9.092;2023-02-21T06:26:31;96667.09;;;7.14;nan
23303;BME280;11820;48.738;9.092;2023-02-21T06:28:57;96653.59;;;7.04;nan
23303;BME280;11820;48.738;9.092;2023-02-21T06:31:23;96648.25;;;7.37;nan
23303;BME280;11820;48.738;9.092;2023-02-21T06:33:48;96641.22;;;7.78;nan
23303;BME280;11820;48.738;9.092;2023-02-21T06:36:17;96640.84;;;7.89;nan
23303;BME280;11820;48.738;9.092;2023-02-21T06:38:48;96630.69;;;7.95;nan
23303;BME280;11820;48.738;9.092;2023-02-21T06:41:16;96636.75;;;8.10;nan
23303;BME280;11820;48.738;9.092;2023-02-21T06:43:42;96636.41;;;8.13;nan
23303;BME280;11820;48.738;9.092;2023-02-21T06:46:08;96640.56;;;8.14;nan
23303;BME280;11820;48.738;9.092;2023-02-21T06:48:33;96647.97;;;8.17;nan
23303;BME280;11820;48.738;9.092;2023-02-21T06:50:58;96645.56;;;8.23;nan
23303;BME280;11820;48.738;9.092;2023-02-21T06:53:24;96646.94;;;7.96;nan
23303;BME280;11820;48.738;9.092;2023-02-21T06:55:49;96648.81;;;7.71;nan
23303;BME280;11820;48.738;9.092;2023-02-21T06:58:14;96658.72;;;7.90;nan
23303;BME280;11820;48.738;9.092;2023-02-21T07:00:40;96658.06;;;7.34;nan
23303;BME280;11820;48.738;9.092;2023-02-21T07:03:05;96656.78;;;7.30;nan
23303;BME280;11820;48.738;9.092;2023-02-21T07:05:30;96659.72;;;7.73;nan
23303;BME280;11820;48.738;9.092;2023-02-21T07:07:59;96662.59;;;7.86;nan
23303;BME280;11820;48.738;9.092;2023-02-21T07:10:25;96661.66;;;7.79;nan
23303;BME280;11820;48.738;9.092;2023-02-21T07:12:51;96659.31;;;8.00;nan
23303;BME280;11820;48.738;9.092;2023-02-21T07:15:16;96661.34;;;8.12;nan
23303;BME280;11820;48.738;9.092;2023-02-21T07:17:41;96653.09;;;8.25;nan
23303;BME280;11820;48.738;9.092;2023-02-21T07:20:08;96655.13;;;8.37;nan
23303;BME280;11820;48.738;9.092;2023-02-21T07:22:33;96663.59;;;8.46;nan
23303;BME280;11820;48.738;9.092;2023-02-21T07:24:58;96647.69;;;8.42;nan
23303;BME280;11820;48.738;9.092;2023-02-21T07:27:24;96652.03;;;8.42;nan
23303;BME280;11820;48.738;9.092;2023-02-21T07:29:50;96654.34;;;8.37;nan
23303;BME280;11820;48.738;9.092;2023-02-21T07:32:16;96654.59;;;8.11;nan
23303;BME280;11820;48.738;9.092;2023-02-21T07:34:42;96655.75;;;8.09;nan
23303;BME280;11820;48.738;9.092;2023-02-21T07:37:08;96653.72;;;8.27;nan
23303;BME280;11820;48.738;9.092;2023-02-21T07:39:34;96653.00;;;8.41;nan
23303;BME280;11820;48.738;9.092;2023-02-21T07:41:59;96658.78;;;8.43;nan
23303;BME280;11820;48.738;9.092;2023-02-21T07:44:25;96662.41;;;8.26;nan
23303;BME280;11820;48.738;9.092;2023-02-21T07:46:50;96655.31;;;8.28;nan
23303;BME280;11820;48.738;9.092;2023-02-21T07:49:15;96654.69;;;8.26;nan
23303;BME280;11820;48.738;9.092;2023-02-21T07:51:41;96652.53;;;8.37;nan
23303;BME280;11820;48.738;9.092;2023-02-21T07:54:06;96651.22;;;8.41;nan
23303;BME280;11820;48.738;9.092;2023-02-21T07:56:31;96654.81;;;8.63;nan
23303;BME280;11820;48.738;9.092;2023-02-21T07:58:57;96650.44;;;8.86;nan
23303;BME280;11820;48.738;9.092;2023-02-21T08:01:24;96656.09;;;9.04;nan
23303;BME280;11820;48.738;9.092;2023-02-21T08:03:49;96659.50;;;9.19;nan
23303;BME280;11820;48.738;9.092;2023-02-21T08:06:15;96657.16;;;9.32;nan
23303;BME280;11820;48.738;9.092;2023-02-21T08:08:41;96654.13;;;9.43;nan
23303;BME280;11820;48.738;9.092;2023-02-21T08:11:06;96654.38;;;9.48;nan
23303;BME280;11820;48.738;9.092;2023-02-21T08:13:31;96657.78;;;9.63;nan
23303;BME280;11820;48.738;9.092;2023-02-21T08:15:56;96652.78;;;9.75;nan
23303;BME280;11820;48.738;9.092;2023-02-21T08:18:23;96653.97;;;9.87;nan
23303;BME280;11820;48.738;9.092;2023-02-21T08:20:49;96654.41;;;10.05;nan
23303;BME280;11820;48.738;9.092;2023-02-21T08:23:15;96651.53;;;10.15;nan
23303;BME280;11820;48.738;9.092;2023-02-21T08:25:42;96660.00;;;10.23;nan
23303;BME280;11820;48.738;9.092;2023-02-21T08:28:08;96657.59;;;10.22;nan
23303;BME280;11820;48.738;9.092;2023-02-21T08:30:33;96654.38;;;10.34;nan
23303;BME280;11820;48.738;9.092;2023-02-21T08:32:59;96654.25;;;10.42;nan
23303;BME280;11820;48.738;9.092;2023-02-21T08:35:24;96665.09;;;10.52;nan
23303;BME280;11820;48.738;9.092;2023-02-21T08:37:50;96662.75;;;10.57;nan
23303;BME280;11820;48.738;9.092;2023-02-21T08:40:18;96660.84;;;10.66;nan
23303;BME280;11820;48.738;9.092;2023-02-21T08:42:48;96668.84;;;10.71;nan
23303;BME280;11820;48.738;9.092;2023-02-21T08:45:15;96667.31;;;10.76;nan
23303;BME280;11820;48.738;9.092;2023-02-21T08:47:41;96667.47;;;10.89;nan
23303;BME280;11820;48.738;9.092;2023-02-21T08:50:07;96667.50;;;10.96;nan
23303;BME280;11820;48.738;9.092;2023-02-21T08:52:32;96665.97;;;11.01;nan
23303;BME280;11820;48.738;9.092;2023-02-21T08:54:58;96665.66;;;11.11;nan
23303;BME280;11820;48.738;9.092;2023-02-21T08:57:23;96665.72;;;11.17;nan
23303;BME280;11820;48.738;9.092;2023-02-21T08:59:48;96663.03;;;11.31;nan
23303;BME280;11820;48.738;9.092;2023-02-21T09:02:19;96656.66;;;11.34;nan
23303;BME280;11820;48.738;9.092;2023-02-21T09:04:45;96650.16;;;11.38;nan
23303;BME280;11820;48.738;9.092;2023-02-21T09:07:17;96653.38;;;11.46;nan
23303;BME280;11820;48.738;9.092;2023-02-21T09:09:42;96660.22;;;11.54;nan
23303;BME280;11820;48.738;9.092;2023-02-21T09:12:08;96652.94;;;11.64;nan
23303;BME280;11820;48.738;9.092;2023-02-21T09:14:38;96658.97;;;11.71;nan
23303;BME280;11820;48.738;9.092;2023-02-21T09:17:05;96647.44;;;11.80;nan
23303;BME280;11820;48.738;9.092;2023-02-21T09:19:31;96654.31;;;11.94;nan
23303;BME280;11820;48.738;9.092;2023-02-21T09:21:56;96650.38;;;12.04;nan
23303;BME280;11820;48.738;9.092;2023-02-21T09:24:24;96651.16;;;12.05;nan
23303;BME280;11820;48.738;9.092;2023-02-21T09:26:51;96651.06;;;12.26;nan
23303;BME280;11820;48.738;9.092;2023-02-21T09:29:20;96648.06;;;12.29;nan
23303;BME280;11820;48.738;9.092;2023-02-21T09:31:47;96651.47;;;12.36;nan
23303;BME280;11820;48.738;9.092;2023-02-21T09:34:12;96651.72;;;12.47;nan
23303;BME280;11820;48.738;9.092;2023-02-21T09:36:37;96651.75;;;12.54;nan
23303;BME280;11820;48.738;9.092;2023-02-21T09:39:03;96646.19;;;12.63;nan
23303;BME280;11820;48.738;9.092;2023-02-21T09:41:31;96645.00;;;12.66;nan
23303;BME280;11820;48.738;9.092;2023-02-21T09:43:57;96647.81;;;12.84;nan
23303;BME280;11820;48.738;9.092;2023-02-21T09:48:56;96642.25;;;12.93;nan
23303;BME280;11820;48.738;9.092;2023-02-21T09:51:22;96644.66;;;13.07;nan
23303;BME280;11820;48.738;9.092;2023-02-21T09:53:52;96635.69;;;13.16;nan
23303;BME280;11820;48.738;9.092;2023-02-21T09:56:30;96632.47;;;13.47;nan
23303;BME280;11820;48.738;9.092;2023-02-21T09:58:58;96640.63;;;13.70;nan
23303;BME280;11820;48.738;9.092;2023-02-21T10:06:38;96631.00;;;13.83;nan
23303;BME280;11820;48.738;9.092;2023-02-21T10:12:11;96630.75;;;13.98;nan
23303;BME280;11820;48.738;9.092;2023-02-21T10:17:20;96625.75;;;14.53;nan
23303;BME280;11820;48.738;9.092;2023-02-21T10:22:59;96623.38;;;14.82;nan
23303;BME280;11820;48.738;9.092;2023-02-21T10:25:30;96620.97;;;14.81;nan
23303;BME280;11820;48.738;9.092;2023-02-21T10:27:58;96620.00;;;15.31;nan
23303;BME280;11820;48.738;9.092;2023-02-21T10:30:31;96612.81;;;15.51;nan
23303;BME280;11820;48.738;9.092;2023-02-21T10:32:56;96624.03;;;15.51;nan
23303;BME280;11820;48.738;9.092;2023-02-21T10:35:22;96614.59;;;15.75;nan
23303;BME280;11820;48.738;9.092;2023-02-21T10:37:58;96617.03;;;16.06;nan
23303;BME280;11820;48.738;9.092;2023-02-21T10:40:40;96600.47;;;20.88;nan
23303;BME280;11820;48.738;9.092;2023-02-21T10:43:34;96589.09;;;27.89;nan
23303;BME280;11820;48.738;9.092;2023-02-21T10:46:27;96587.78;;;31.10;nan
23303;BME280;11820;48.738;9.092;2023-02-21T10:48:58;96579.88;;;32.39;nan
23303;BME280;11820;48.738;9.092;2023-02-21T10:51:34;96575.22;;;32.28;nan
23303;BME280;11820;48.738;9.092;2023-02-21T10:54:23;96576.28;;;33.78;nan
23303;BME280;11820;48.738;9.092;2023-02-21T10:56:51;96579.72;;;30.93;nan
23303;BME280;11820;48.738;9.092;2023-02-21T10:59:24;96571.28;;;29.14;nan
23303;BME280;11820;48.738;9.092;2023-02-21T11:01:49;96577.16;;;28.00;nan
23303;BME280;11820;48.738;9.092;2023-02-21T11:15:02;96564.16;;;25.25;nan
23303;BME280;11820;48.738;9.092;2023-02-21T11:17:29;96565.19;;;24.90;nan
23303;BME280;11820;48.738;9.092;2023-02-21T11:25:24;96557.41;;;26.18;nan
23303;BME280;11820;48.738;9.092;2023-02-21T11:30:27;96534.81;;;32.41;nan
23303;BME280;11820;48.738;9.092;2023-02-21T11:32:55;96528.13;;;33.62;nan
23303;BME280;11820;48.738;9.092;2023-02-21T11:35:27;96523.53;;;35.09;nan
23303;BME280;11820;48.738;9.092;2023-02-21T11:38:05;96513.28;;;35.85;nan
23303;BME280;11820;48.738;9.092;2023-02-21T11:40:48;96512.69;;;35.06;nan
23303;BME280;11820;48.738;9.092;2023-02-21T11:48:26;96499.03;;;38.34;nan
23303;BME280;11820;48.738;9.092;2023-02-21T11:50:57;96501.00;;;36.87;nan
23303;BME280;11820;48.738;9.092;2023-02-21T11:53:30;96501.63;;;36.27;nan
23303;BME280;11820;48.738;9.092;2023-02-21T11:59:04;96482.97;;;36.72;nan
23303;BME280;11820;48.738;9.092;2023-02-21T12:12:59;96456.53;;;40.13;nan
23303;BME280;11820;48.738;9.092;2023-02-21T12:18:28;96449.91;;;40.79;nan
23303;BME280;11820;48.738;9.092;2023-02-21T12:21:16;96443.47;;;39.79;nan
23303;BME280;11820;48.738;9.092;2023-02-21T12:26:52;96436.78;;;40.91;nan
23303;BME280;11820;48.738;9.092;2023-02-21T12:29:50;96436.50;;;39.34;nan
23303;BME280;11820;48.738;9.092;2023-02-21T12:35:36;96434.38;;;31.32;nan
23303;BME280;11820;48.738;9.092;2023-02-21T12:41:07;96433.50;;;29.14;nan
23303;BME280;11820;48.738;9.092;2023-02-21T12:51:52;96425.13;;;26.48;nan
23303;BME280;11820;48.738;9.092;2023-02-21T12:54:47;96416.75;;;26.04;nan
23303;BME280;11820;48.738;9.092;2023-02-21T12:57:24;96413.22;;;26.09;nan
23303;BME280;11820;48.738;9.092;2023-02-21T13:00:04;96410.03;;;25.70;nan
23303;BME280;11820;48.738;9.092;2023-02-21T13:06:01;96405.59;;;24.90;nan
23303;BME280;11820;48.738;9.092;2023-02-21T13:08:35;96393.28;;;25.04;nan
23303;BME280;11820;48.738;9.092;2023-02-21T13:13:43;96378.84;;;24.30;nan
23303;BME280;11820;48.738;9.092;2023-02-21T13:16:12;96384.38;;;24.67;nan
23303;BME280;11820;48.738;9.092;2023-02-21T13:18:43;96379.50;;;23.58;nan
23303;BME280;11820;48.738;9.092;2023-02-21T13:29:42;96371.56;;;23.68;nan
23303;BME280;11820;48.738;9.092;2023-02-21T13:32:12;96363.84;;;23.08;nan
23303;BME280;11820;48.738;9.092;2023-02-21T13:34:44;96353.88;;;23.64;nan
23303;BME280;11820;48.738;9.092;2023-02-21T13:37:20;96354.34;;;23.76;nan
23303;BME280;11820;48.738;9.092;2023-02-21T13:39:58;96347.63;;;23.98;nan
23303;BME280;11820;48.738;9.092;2023-02-21T13:42:33;96334.00;;;24.15;nan
23303;BME280;11820;48.738;9.092;2023-02-21T13:55:32;96321.44;;;24.02;nan
23303;BME280;11820;48.738;9.092;2023-02-21T14:08:21;96305.47;;;24.45;nan
23303;BME280;11820;48.738;9.092;2023-02-21T14:18:44;96290.97;;;24.38;nan
23303;BME280;11820;48.738;9.092;2023-02-21T14:26:49;96289.72;;;24.30;nan
23303;BME280;11820;48.738;9.092;2023-02-21T14:29:34;96287.78;;;24.69;nan
23303;BME280;11820;48.738;9.092;2023-02-21T14:37:10;96284.75;;;24.24;nan
23303;BME280;11820;48.738;9.092;2023-02-21T14:39:40;96278.53;;;24.67;nan
23303;BME280;11820;48.738;9.092;2023-02-21T14:56:11;96262.06;;;24.51;nan
23303;BME280;11820;48.738;9.092;2023-02-21T15:04:01;96253.28;;;23.55;nan
23303;BME280;11820;48.738;9.092;2023-02-21T15:06:29;96250.63;;;23.17;nan
23303;BME280;11820;48.738;9.092;2023-02-21T15:08:56;96250.47;;;23.85;nan
23303;BME280;11820;48.738;9.092;2023-02-21T15:11:39;96249.38;;;23.91;nan
23303;BME280;11820;48.738;9.092;2023-02-21T15:14:21;96244.31;;;23.61;nan
23303;BME280;11820;48.738;9.092;2023-02-21T15:16:50;96255.38;;;23.58;nan
23303;BME280;11820;48.738;9.092;2023-02-21T15:19:29;96251.47;;;23.13;nan
23303;BME280;11820;48.738;9.092;2023-02-21T15:22:18;96242.66;;;23.27;nan
23303;BME280;11820;48.738;9.092;2023-02-21T15:27:28;96232.00;;;23.42;nan
23303;BME280;11820;48.738;9.092;2023-02-21T15:30:06;96244.09;;;23.00;nan
23303;BME280;11820;48.738;9.092;2023-02-21T15:32:34;96244.19;;;22.75;nan
23303;BME280;11820;48.738;9.092;2023-02-21T15:35:03;96239.97;;;22.79;nan
23303;BME280;11820;48.738;9.092;2023-02-21T15:37:31;96237.19;;;22.50;nan
23303;BME280;11820;48.738;9.092;2023-02-21T15:40:02;96235.28;;;22.56;nan
23303;BME280;11820;48.738;9.092;2023-02-21T15:42:30;96234.31;;;22.02;nan
23303;BME280;11820;48.738;9.092;2023-02-21T15:45:00;96229.88;;;21.82;nan
23303;BME280;11820;48.738;9.092;2023-02-21T15:47:28;96229.81;;;21.33;nan
23303;BME280;11820;48.738;9.092;2023-02-21T15:50:01;96237.22;;;20.64;nan
23303;BME280;11820;48.738;9.092;2023-02-21T15:57:43;96239.53;;;19.47;nan
23303;BME280;11820;48.738;9.092;2023-02-21T16:00:28;96232.22;;;19.01;nan
23303;BME280;11820;48.738;9.092;2023-02-21T16:06:23;96234.56;;;18.16;nan
23303;BME280;11820;48.738;9.092;2023-02-21T16:11:15;96232.44;;;17.64;nan
23303;BME280;11820;48.738;9.092;2023-02-21T16:13:41;96231.63;;;17.47;nan
23303;BME280;11820;48.738;9.092;2023-02-21T16:16:07;96227.78;;;17.22;nan
23303;BME280;11820;48.738;9.092;2023-02-21T16:18:33;96233.75;;;17.06;nan
23303;BME280;11820;48.738;9.092;2023-02-21T16:21:01;96230.16;;;16.95;nan
23303;BME280;11820;48.738;9.092;2023-02-21T16:23:35;96230.84;;;16.74;nan
23303;BME280;11820;48.738;9.092;2023-02-21T16:26:19;96226.16;;;16.76;nan
23303;BME280;11820;48.738;9.092;2023-02-21T16:28:49;96233.69;;;16.61;nan
23303;BME280;11820;48.738;9.092;2023-02-21T16:31:34;96233.25;;;16.53;nan
23303;BME280;11820;48.738;9.092;2023-02-21T16:34:01;96242.81;;;16.25;nan
23303;BME280;11820;48.738;9.092;2023-02-21T16:36:30;96238.63;;;16.24;nan
23303;BME280;11820;48.738;9.092;2023-02-21T16:38:56;96240.22;;;16.02;nan
23303;BME280;11820;48.738;9.092;2023-02-21T16:41:22;96239.31;;;15.96;nan
23303;BME280;11820;48.738;9.092;2023-02-21T16:43:48;96238.97;;;15.93;nan
23303;BME280;11820;48.738;9.092;2023-02-21T16:46:14;96239.66;;;15.88;nan
23303;BME280;11820;48.738;9.092;2023-02-21T16:48:40;96241.81;;;15.80;nan
23303;BME280;11820;48.738;9.092;2023-02-21T16:51:11;96237.97;;;15.71;nan
23303;BME280;11820;48.738;9.092;2023-02-21T16:53:40;96242.00;;;15.67;nan
23303;BME280;11820;48.738;9.092;2023-02-21T16:56:06;96244.03;;;15.53;nan
23303;BME280;11820;48.738;9.092;2023-02-21T16:58:35;96242.13;;;15.49;nan
23303;BME280;11820;48.738;9.092;2023-02-21T17:01:14;96247.63;;;15.41;nan